sensor_id;sensor_type;location;lat;lon;timestamp;temperature;humidity
64561;DHT22;50960;46.838;16.838;2022-10-29T03:02:33;12.70;99.90
64561;DHT22;50960;46.838;16.838;2022-10-29T03:04:59;12.60;99.90
64561;DHT22;50960;46.838;16.838;2022-10-29T03:07:25;12.70;99.90
64561;DHT22;50960;46.838;16.838;2022-10-29T03:09:51;12.70;99.90
64561;DHT22;50960;46.838;16.838;2022-10-29T03:12:18;12.60;99.90
64561;DHT22;50960;46.838;16.838;2022-10-29T03:14:44;12.60;99.90
64561;DHT22;50960;46.838;16.838;2022-10-29T03:17:10;12.50;99.90
64561;DHT22;50960;46.838;16.838;2022-10-29T03:19:36;12.40;99.90
64561;DHT22;50960;46.838;16.838;2022-10-29T03:22:03;12.40;99.90
64561;DHT22;50960;46.838;16.838;2022-10-29T03:24:29;12.50;99.90
64561;DHT22;50960;46.838;16.838;2022-10-29T03:26:55;12.60;99.90
64561;DHT22;50960;46.838;16.838;2022-10-29T03:29:22;12.60;99.90
64561;DHT22;50960;46.838;16.838;2022-10-29T03:31:48;12.60;99.90
64561;DHT22;50960;46.838;16.838;2022-10-29T03:34:14;12.60;99.90
64561;DHT22;50960;46.838;16.838;2022-10-29T03:36:40;12.60;99.90
64561;DHT22;50960;46.838;16.838;2022-10-29T03:39:07;12.60;99.90
64561;DHT22;50960;46.838;16.838;2022-10-29T03:41:33;12.50;99.90
64561;DHT22;50960;46.838;16.838;2022-10-29T03:43:59;12.50;99.90
64561;DHT22;50960;46.838;16.838;2022-10-29T03:46:25;12.50;99.90
64561;DHT22;50960;46.838;16.838;2022-10-29T03:48:51;12.50;99.90
64561;DHT22;50960;46.838;16.838;2022-10-29T03:51:17;12.40;99.90
64561;DHT22;50960;46.838;16.838;2022-10-29T03:53:44;12.40;99.90
64561;DHT22;50960;46.838;16.838;2022-10-29T03:56:10;12.40;99.90
64561;DHT22;50960;46.838;16.838;2022-10-29T03:58:36;12.40;99.90
64561;DHT22;50960;46.838;16.838;2022-10-29T04:01:05;12.40;99.90
64561;DHT22;50960;46.838;16.838;2022-10-29T04:03:33;12.40;99.90
64561;DHT22;50960;46.838;16.838;2022-10-29T04:06:09;12.40;99.90
64561;DHT22;50960;46.838;16.838;2022-10-29T04:08:35;12.30;99.90
64561;DHT22;50960;46.838;16.838;2022-10-29T04:11:02;12.30;99.90
64561;DHT22;50960;46.838;16.838;2022-10-29T04:13:28;12.40;99.90
64561;DHT22;50960;46.838;16.838;2022-10-29T04:15:55;12.40;99.90
64561;DHT22;50960;46.838;16.838;2022-10-29T04:18:22;12.40;99.90
64561;DHT22;50960;46.838;16.838;2022-10-29T04:20:49;12.40;99.90
64561;DHT22;50960;46.838;16.838;2022-10-29T04:23:15;12.30;99.90
64561;DHT22;50960;46.838;16.838;2022-10-29T04:25:41;12.30;99.90
64561;DHT22;50960;46.838;16.838;2022-10-29T04:28:07;12.40;99.90
64561;DHT22;50960;46.838;16.838;2022-10-29T04:30:34;12.40;99.90
64561;DHT22;50960;46.838;16.838;2022-10-29T04:33:00;12.40;99.90
64561;DHT22;50960;46.838;16.838;2022-10-29T04:35:27;12.40;99.90
64561;DHT22;50960;46.838;16.838;2022-10-29T04:37:53;12.30;99.90
64561;DHT22;50960;46.838;16.838;2022-10-29T04:40:23;12.30;99.90
64561;DHT22;50960;46.838;16.838;2022-10-29T04:42:49;12.30;99.90
64561;DHT22;50960;46.838;16.838;2022-10-29T04:45:16;12.30;99.90
64561;DHT22;50960;46.838;16.838;2022-10-29T04:47:42;12.30;99.90
64561;DHT22;50960;46.838;16.838;2022-10-29T04:50:08;12.30;99.90
64561;DHT22;50960;46.838;16.838;2022-10-29T04:52:35;12.40;99.90
64561;DHT22;50960;46.838;16.838;2022-10-29T04:55:01;12.40;99.90
64561;DHT22;50960;46.838;16.838;2022-10-29T04:57:27;12.30;99.90
64561;DHT22;50960;46.838;16.838;2022-10-29T04:59:53;12.30;99.90
64561;DHT22;50960;46.838;16.838;2022-10-29T05:02:19;12.40;99.90
64561;DHT22;50960;46.838;16.838;2022-10-29T05:04:46;12.30;99.90
64561;DHT22;50960;46.838;16.838;2022-10-29T05:07:12;12.30;99.90
64561;DHT22;50960;46.838;16.838;2022-10-29T05:09:38;12.20;99.90
64561;DHT22;50960;46.838;16.838;2022-10-29T05:12:06;12.30;99.90
64561;DHT22;50960;46.838;16.838;2022-10-29T05:14:32;12.30;99.90
64561;DHT22;50960;46.838;16.838;2022-10-29T05:16:58;12.30;99.90
64561;DHT22;50960;46.838;16.838;2022-10-29T05:19:24;12.40;99.90
64561;DHT22;50960;46.838;16.838;2022-10-29T05:21:51;12.40;99.90
64561;DHT22;50960;46.838;16.838;2022-10-29T05:24:17;12.40;99.90
64561;DHT22;50960;46.838;16.838;2022-10-29T05:26:43;12.40;99.90
64561;DHT22;50960;46.838;16.838;2022-10-29T05:29:09;12.40;99.90
64561;DHT22;50960;46.838;16.838;2022-10-29T05:31:35;12.40;99.90
64561;DHT22;50960;46.838;16.838;2022-10-29T05:34:02;12.40;99.90
64561;DHT22;50960;46.838;16.838;2022-10-29T05:36:28;12.40;99.90
64561;DHT22;50960;46.838;16.838;2022-10-29T05:38:54;12.30;99.90
64561;DHT22;50960;46.838;16.838;2022-10-29T05:41:20;12.30;99.90
64561;DHT22;50960;46.838;16.838;2022-10-29T05:43:49;12.30;99.90
64561;DHT22;50960;46.838;16.838;2022-10-29T05:46:16;12.10;99.90
64561;DHT22;50960;46.838;16.838;2022-10-29T05:48:42;12.10;99.90
64561;DHT22;50960;46.838;16.838;2022-10-29T05:51:09;12.10;99.90
64561;DHT22;50960;46.838;16.838;2022-10-29T05:53:35;12.20;99.90
64561;DHT22;50960;46.838;16.838;2022-10-29T05:56:02;12.20;99.90
64561;DHT22;50960;46.838;16.838;2022-10-29T05:58:28;12.30;99.90
64561;DHT22;50960;46.838;16.838;2022-10-29T06:00:54;12.30;99.90
64561;DHT22;50960;46.838;16.838;2022-10-29T06:03:21;12.30;99.90
64561;DHT22;50960;46.838;16.838;2022-10-29T06:05:48;12.20;99.90
64561;DHT22;50960;46.838;16.838;2022-10-29T06:08:16;12.20;99.90
64561;DHT22;50960;46.838;16.838;2022-10-29T06:10:42;12.30;99.90
64561;DHT22;50960;46.838;16.838;2022-10-29T06:13:13;12.20;99.90
64561;DHT22;50960;46.838;16.838;2022-10-29T06:15:40;12.20;99.90
64561;DHT22;50960;46.838;16.838;2022-10-29T06:18:07;12.20;99.90
64561;DHT22;50960;46.838;16.838;2022-10-29T06:20:34;12.20;99.90
64561;DHT22;50960;46.838;16.838;2022-10-29T06:35:22;12.50;99.90
64561;DHT22;50960;46.838;16.838;2022-10-29T06:42:41;12.70;99.90
64561;DHT22;50960;46.838;16.838;2022-10-29T06:45:08;12.70;99.90
64561;DHT22;50960;46.838;16.838;2022-10-29T06:47:41;12.70;99.90
64561;DHT22;50960;46.838;16.838;2022-10-29T06:50:08;12.80;99.90
64561;DHT22;50960;46.838;16.838;2022-10-29T06:52:35;13.00;99.90
64561;DHT22;50960;46.838;16.838;2022-10-29T06:55:03;12.80;99.90
64561;DHT22;50960;46.838;16.838;2022-10-29T06:57:29;12.90;99.90
64561;DHT22;50960;46.838;16.838;2022-10-29T07:02:24;12.80;99.90
64561;DHT22;50960;46.838;16.838;2022-10-29T07:04:50;12.80;99.90
64561;DHT22;50960;46.838;16.838;2022-10-29T07:07:17;13.00;99.90
64561;DHT22;50960;46.838;16.838;2022-10-29T07:09:43;13.00;99.90
64561;DHT22;50960;46.838;16.838;2022-10-29T07:12:09;13.00;99.90
64561;DHT22;50960;46.838;16.838;2022-10-29T07:14:36;13.00;99.90
64561;DHT22;50960;46.838;16.838;2022-10-29T07:17:02;13.10;99.90
64561;DHT22;50960;46.838;16.838;2022-10-29T07:19:28;13.00;99.90
64561;DHT22;50960;46.838;16.838;2022-10-29T07:21:55;13.00;99.90
64561;DHT22;50960;46.838;16.838;2022-10-29T07:24:21;13.10;99.90
64561;DHT22;50960;46.838;16.838;2022-10-29T07:26:47;13.10;99.90
64561;DHT22;50960;46.838;16.838;2022-10-29T07:29:13;13.10;99.90
64561;DHT22;50960;46.838;16.838;2022-10-29T07:31:40;13.00;99.90
64561;DHT22;50960;46.838;16.838;2022-10-29T07:34:06;13.00;99.90
64561;DHT22;50960;46.838;16.838;2022-10-29T07:36:32;13.00;99.90
64561;DHT22;50960;46.838;16.838;2022-10-29T07:38:58;13.00;99.90
64561;DHT22;50960;46.838;16.838;2022-10-29T07:41:25;13.00;99.90
64561;DHT22;50960;46.838;16.838;2022-10-29T07:43:52;13.10;99.90
64561;DHT22;50960;46.838;16.838;2022-10-29T07:46:18;13.10;99.90
64561;DHT22;50960;46.838;16.838;2022-10-29T07:48:44;13.00;99.90
64561;DHT22;50960;46.838;16.838;2022-10-29T07:51:11;13.20;99.90
64561;DHT22;50960;46.838;16.838;2022-10-29T07:53:38;13.10;99.90
64561;DHT22;50960;46.838;16.838;2022-10-29T07:56:04;13.10;99.90
64561;DHT22;50960;46.838;16.838;2022-10-29T07:58:30;13.20;99.90
64561;DHT22;50960;46.838;16.838;2022-10-29T08:00:58;13.30;99.90
64561;DHT22;50960;46.838;16.838;2022-10-29T08:03:25;13.40;99.90
64561;DHT22;50960;46.838;16.838;2022-10-29T08:05:51;13.50;99.90
64561;DHT22;50960;46.838;16.838;2022-10-29T08:08:21;13.60;99.90
64561;DHT22;50960;46.838;16.838;2022-10-29T08:10:47;13.60;99.90
64561;DHT22;50960;46.838;16.838;2022-10-29T08:13:13;13.50;99.90
64561;DHT22;50960;46.838;16.838;2022-10-29T08:15:39;13.50;99.90
64561;DHT22;50960;46.838;16.838;2022-10-29T08:18:15;13.60;99.90
64561;DHT22;50960;46.838;16.838;2022-10-29T08:20:41;13.50;99.90
64561;DHT22;50960;46.838;16.838;2022-10-29T08:23:08;13.60;99.90
64561;DHT22;50960;46.838;16.838;2022-10-29T08:25:34;13.80;99.90
64561;DHT22;50960;46.838;16.838;2022-10-29T08:28:11;13.80;99.90
64561;DHT22;50960;46.838;16.838;2022-10-29T08:30:38;14.00;99.90
64561;DHT22;50960;46.838;16.838;2022-10-29T08:33:04;14.10;99.90
64561;DHT22;50960;46.838;16.838;2022-10-29T08:35:31;14.20;99.60
64561;DHT22;50960;46.838;16.838;2022-10-29T08:37:58;14.20;99.20
64561;DHT22;50960;46.838;16.838;2022-10-29T08:43:24;14.30;98.20
64561;DHT22;50960;46.838;16.838;2022-10-29T08:45:54;14.40;98.40
64561;DHT22;50960;46.838;16.838;2022-10-29T08:51:02;14.40;98.60
64561;DHT22;50960;46.838;16.838;2022-10-29T08:53:38;14.50;98.60
64561;DHT22;50960;46.838;16.838;2022-10-29T08:56:18;14.60;98.30
64561;DHT22;50960;46.838;16.838;2022-10-29T08:59:23;14.40;98.50
64561;DHT22;50960;46.838;16.838;2022-10-29T09:01:42;14.50;98.60
64561;DHT22;50960;46.838;16.838;2022-10-29T09:04:32;14.50;98.00
64561;DHT22;50960;46.838;16.838;2022-10-29T09:26:57;14.70;97.30
64561;DHT22;50960;46.838;16.838;2022-10-29T09:32:27;14.60;97.50
64561;DHT22;50960;46.838;16.838;2022-10-29T09:35:00;14.70;97.40
64561;DHT22;50960;46.838;16.838;2022-10-29T09:37:44;14.80;97.30
64561;DHT22;50960;46.838;16.838;2022-10-29T09:43:05;15.00;96.50
64561;DHT22;50960;46.838;16.838;2022-10-29T09:45:49;15.10;96.50
64561;DHT22;50960;46.838;16.838;2022-10-29T09:54:01;15.30;95.90
64561;DHT22;50960;46.838;16.838;2022-10-29T09:56:27;15.40;95.30
64561;DHT22;50960;46.838;16.838;2022-10-29T09:59:05;15.30;95.50
64561;DHT22;50960;46.838;16.838;2022-10-29T10:01:34;15.50;95.10
64561;DHT22;50960;46.838;16.838;2022-10-29T10:04:10;15.90;94.40
64561;DHT22;50960;46.838;16.838;2022-10-29T10:07:08;16.10;94.00
64561;DHT22;50960;46.838;16.838;2022-10-29T10:09:58;16.20;94.00
64561;DHT22;50960;46.838;16.838;2022-10-29T10:12:27;16.00;93.00
64561;DHT22;50960;46.838;16.838;2022-10-29T10:15:27;15.90;93.50
64561;DHT22;50960;46.838;16.838;2022-10-29T10:17:56;15.70;93.70
64561;DHT22;50960;46.838;16.838;2022-10-29T10:20:38;15.80;93.50
64561;DHT22;50960;46.838;16.838;2022-10-29T10:23:25;16.10;93.40
64561;DHT22;50960;46.838;16.838;2022-10-29T10:25:53;16.20;92.90
64561;DHT22;50960;46.838;16.838;2022-10-29T10:28:28;16.30;92.50
64561;DHT22;50960;46.838;16.838;2022-10-29T10:31:13;16.30;92.20
64561;DHT22;50960;46.838;16.838;2022-10-29T10:33:52;16.40;92.30
64561;DHT22;50960;46.838;16.838;2022-10-29T10:36:22;16.20;91.90
64561;DHT22;50960;46.838;16.838;2022-10-29T10:38:51;16.40;92.40
64561;DHT22;50960;46.838;16.838;2022-10-29T10:41:27;16.50;92.70
64561;DHT22;50960;46.838;16.838;2022-10-29T10:44:00;16.60;92.10
64561;DHT22;50960;46.838;16.838;2022-10-29T10:46:33;16.90;91.80
64561;DHT22;50960;46.838;16.838;2022-10-29T10:49:16;16.90;91.40
64561;DHT22;50960;46.838;16.838;2022-10-29T10:51:47;16.80;91.40
64561;DHT22;50960;46.838;16.838;2022-10-29T10:57:31;17.00;91.40
64561;DHT22;50960;46.838;16.838;2022-10-29T11:00:05;17.20;90.60
64561;DHT22;50960;46.838;16.838;2022-10-29T11:05:22;17.50;90.00
64561;DHT22;50960;46.838;16.838;2022-10-29T11:10:39;18.00;88.00
64561;DHT22;50960;46.838;16.838;2022-10-29T11:13:13;18.00;87.20
64561;DHT22;50960;46.838;16.838;2022-10-29T11:21:13;18.20;84.80
64561;DHT22;50960;46.838;16.838;2022-10-29T11:23:53;18.20;85.80
64561;DHT22;50960;46.838;16.838;2022-10-29T11:26:31;18.30;84.90
64561;DHT22;50960;46.838;16.838;2022-10-29T11:29:09;18.40;85.40
64561;DHT22;50960;46.838;16.838;2022-10-29T11:31:41;18.40;84.60
64561;DHT22;50960;46.838;16.838;2022-10-29T11:34:11;18.20;86.20
64561;DHT22;50960;46.838;16.838;2022-10-29T11:36:56;17.90;85.60
64561;DHT22;50960;46.838;16.838;2022-10-29T11:39:30;17.80;87.40
64561;DHT22;50960;46.838;16.838;2022-10-29T11:41:59;17.90;88.70
64561;DHT22;50960;46.838;16.838;2022-10-29T11:44:36;18.10;87.20
64561;DHT22;50960;46.838;16.838;2022-10-29T11:50:23;18.40;85.40
64561;DHT22;50960;46.838;16.838;2022-10-29T12:00:15;18.40;85.40
64561;DHT22;50960;46.838;16.838;2022-10-29T12:05:48;18.00;86.80
64561;DHT22;50960;46.838;16.838;2022-10-29T12:08:36;18.00;86.90
64561;DHT22;50960;46.838;16.838;2022-10-29T12:16:44;17.80;89.20
64561;DHT22;50960;46.838;16.838;2022-10-29T12:30:10;18.00;88.50
64561;DHT22;50960;46.838;16.838;2022-10-29T12:32:58;18.00;89.10
64561;DHT22;50960;46.838;16.838;2022-10-29T12:41:11;17.90;88.40
64561;DHT22;50960;46.838;16.838;2022-10-29T12:43:38;17.90;89.40
64561;DHT22;50960;46.838;16.838;2022-10-29T12:52:01;17.60;89.60
64561;DHT22;50960;46.838;16.838;2022-10-29T12:57:19;17.70;89.60
64561;DHT22;50960;46.838;16.838;2022-10-29T12:59:48;17.70;89.20
64561;DHT22;50960;46.838;16.838;2022-10-29T13:02:25;17.70;89.30
64561;DHT22;50960;46.838;16.838;2022-10-29T13:08:07;17.80;88.70
64561;DHT22;50960;46.838;16.838;2022-10-29T13:15:35;17.90;88.50
64561;DHT22;50960;46.838;16.838;2022-10-29T13:20:50;18.00;87.90
64561;DHT22;50960;46.838;16.838;2022-10-29T13:25:52;18.10;87.90
64561;DHT22;50960;46.838;16.838;2022-10-29T13:30:53;18.10;88.10
64561;DHT22;50960;46.838;16.838;2022-10-29T13:41:35;18.20;87.70
64561;DHT22;50960;46.838;16.838;2022-10-29T13:49:44;18.10;87.70
64561;DHT22;50960;46.838;16.838;2022-10-29T13:52:14;18.10;88.80
64561;DHT22;50960;46.838;16.838;2022-10-29T13:54:55;18.10;88.20
64561;DHT22;50960;46.838;16.838;2022-10-29T14:00:20;18.30;89.00
64561;DHT22;50960;46.838;16.838;2022-10-29T14:02:53;18.40;89.10
64561;DHT22;50960;46.838;16.838;2022-10-29T14:08:18;18.50;86.70
64561;DHT22;50960;46.838;16.838;2022-10-29T14:10:47;18.50;86.70
64561;DHT22;50960;46.838;16.838;2022-10-29T14:13:30;18.40;87.70
64561;DHT22;50960;46.838;16.838;2022-10-29T14:18:32;18.40;89.30
64561;DHT22;50960;46.838;16.838;2022-10-29T14:21:01;18.40;89.10
64561;DHT22;50960;46.838;16.838;2022-10-29T14:23:29;18.30;89.60
64561;DHT22;50960;46.838;16.838;2022-10-29T14:26:00;18.20;89.80
64561;DHT22;50960;46.838;16.838;2022-10-29T14:28:30;18.20;90.10
64561;DHT22;50960;46.838;16.838;2022-10-29T14:31:00;18.10;90.40
64561;DHT22;50960;46.838;16.838;2022-10-29T14:33:31;18.00;90.40
64561;DHT22;50960;46.838;16.838;2022-10-29T14:36:05;17.90;90.80
64561;DHT22;50960;46.838;16.838;2022-10-29T14:38:56;17.80;91.10
64561;DHT22;50960;46.838;16.838;2022-10-29T14:41:24;17.80;91.30
64561;DHT22;50960;46.838;16.838;2022-10-29T14:47:24;17.60;91.70
64561;DHT22;50960;46.838;16.838;2022-10-29T14:49:53;17.40;92.20
64561;DHT22;50960;46.838;16.838;2022-10-29T14:52:31;17.40;92.20
64561;DHT22;50960;46.838;16.838;2022-10-29T14:55:01;17.30;92.30
64561;DHT22;50960;46.838;16.838;2022-10-29T14:57:31;17.30;92.50
64561;DHT22;50960;46.838;16.838;2022-10-29T15:00:02;17.20;92.70
64561;DHT22;50960;46.838;16.838;2022-10-29T15:02:36;17.10;93.10
64561;DHT22;50960;46.838;16.838;2022-10-29T15:08:11;17.40;92.40
64561;DHT22;50960;46.838;16.838;2022-10-29T15:10:51;17.20;92.40
64561;DHT22;50960;46.838;16.838;2022-10-29T15:15:58;16.90;93.30
64561;DHT22;50960;46.838;16.838;2022-10-29T15:18:26;16.70;93.90
64561;DHT22;50960;46.838;16.838;2022-10-29T15:20:54;16.60;94.30
64561;DHT22;50960;46.838;16.838;2022-10-29T15:23:28;16.40;94.40
64561;DHT22;50960;46.838;16.838;2022-10-29T15:26:03;16.30;94.60
64561;DHT22;50960;46.838;16.838;2022-10-29T15:28:36;16.30;94.60
64561;DHT22;50960;46.838;16.838;2022-10-29T15:31:04;16.20;95.00
64561;DHT22;50960;46.838;16.838;2022-10-29T15:33:31;16.10;95.70
64561;DHT22;50960;46.838;16.838;2022-10-29T15:36:02;16.00;96.10
64561;DHT22;50960;46.838;16.838;2022-10-29T15:43:54;15.90;96.10
64561;DHT22;50960;46.838;16.838;2022-10-29T15:46:26;15.80;96.70
64561;DHT22;50960;46.838;16.838;2022-10-29T15:48:53;15.70;97.10
64561;DHT22;50960;46.838;16.838;2022-10-29T15:51:24;15.70;98.10
64561;DHT22;50960;46.838;16.838;2022-10-29T15:53:57;15.70;98.30
64561;DHT22;50960;46.838;16.838;2022-10-29T15:56:27;15.50;98.20
64561;DHT22;50960;46.838;16.838;2022-10-29T15:58:55;15.50;98.10
64561;DHT22;50960;46.838;16.838;2022-10-29T16:01:23;15.40;98.40
64561;DHT22;50960;46.838;16.838;2022-10-29T16:03:50;15.40;98.70
64561;DHT22;50960;46.838;16.838;2022-10-29T16:06:16;15.30;98.60
64561;DHT22;50960;46.838;16.838;2022-10-29T16:08:48;15.30;99.10
64561;DHT22;50960;46.838;16.838;2022-10-29T16:11:17;15.30;99.40
64561;DHT22;50960;46.838;16.838;2022-10-29T16:13:50;15.20;99.50
64561;DHT22;50960;46.838;16.838;2022-10-29T16:16:22;15.20;99.20
64561;DHT22;50960;46.838;16.838;2022-10-29T16:18:49;15.10;99.40
64561;DHT22;50960;46.838;16.838;2022-10-29T16:21:21;15.10;99.30
64561;DHT22;50960;46.838;16.838;2022-10-29T16:23:48;15.00;99.70
64561;DHT22;50960;46.838;16.838;2022-10-29T16:26:17;15.00;99.90
64561;DHT22;50960;46.838;16.838;2022-10-29T16:28:44;14.90;99.90
64561;DHT22;50960;46.838;16.838;2022-10-29T16:31:23;14.90;99.90
64561;DHT22;50960;46.838;16.838;2022-10-29T16:33:53;14.90;99.90
64561;DHT22;50960;46.838;16.838;2022-10-29T16:36:20;14.80;99.90
64561;DHT22;50960;46.838;16.838;2022-10-29T16:38:46;14.80;99.90
64561;DHT22;50960;46.838;16.838;2022-10-29T16:41:14;14.80;99.90
64561;DHT22;50960;46.838;16.838;2022-10-29T16:43:41;14.80;99.90
64561;DHT22;50960;46.838;16.838;2022-10-29T16:46:08;14.80;99.90
64561;DHT22;50960;46.838;16.838;2022-10-29T16:48:35;14.80;99.90
64561;DHT22;50960;46.838;16.838;2022-10-29T16:51:01;14.70;99.90
64561;DHT22;50960;46.838;16.838;2022-10-29T16:53:28;14.70;99.90
64561;DHT22;50960;46.838;16.838;2022-10-29T16:55:54;14.70;99.90
64561;DHT22;50960;46.838;16.838;2022-10-29T16:58:20;14.70;99.90
64561;DHT22;50960;46.838;16.838;2022-10-29T17:00:47;14.70;99.90
64561;DHT22;50960;46.838;16.838;2022-10-29T17:03:14;14.70;99.90
64561;DHT22;50960;46.838;16.838;2022-10-29T17:05:43;14.60;99.90
64561;DHT22;50960;46.838;16.838;2022-10-29T17:08:10;14.70;99.90
64561;DHT22;50960;46.838;16.838;2022-10-29T17:10:37;14.60;99.90
64561;DHT22;50960;46.838;16.838;2022-10-29T17:13:04;14.60;99.90
64561;DHT22;50960;46.838;16.838;2022-10-29T17:15:38;14.60;99.90
64561;DHT22;50960;46.838;16.838;2022-10-29T17:18:06;14.60;99.90
64561;DHT22;50960;46.838;16.838;2022-10-29T17:20:32;14.60;99.90
64561;DHT22;50960;46.838;16.838;2022-10-29T17:22:58;14.60;99.90
64561;DHT22;50960;46.838;16.838;2022-10-29T17:25:24;14.60;99.90
64561;DHT22;50960;46.838;16.838;2022-10-29T17:27:51;14.60;99.90
64561;DHT22;50960;46.838;16.838;2022-10-29T17:30:17;14.60;99.90
64561;DHT22;50960;46.838;16.838;2022-10-29T17:32:43;14.60;99.90
64561;DHT22;50960;46.838;16.838;2022-10-29T17:35:10;14.50;99.90
64561;DHT22;50960;46.838;16.838;2022-10-29T17:37:36;14.50;99.90
64561;DHT22;50960;46.838;16.838;2022-10-29T17:40:03;14.40;99.90
64561;DHT22;50960;46.838;16.838;2022-10-29T17:42:29;14.40;99.90
64561;DHT22;50960;46.838;16.838;2022-10-29T17:44:56;14.30;99.90
64561;DHT22;50960;46.838;16.838;2022-10-29T17:47:22;14.30;99.90
64561;DHT22;50960;46.838;16.838;2022-10-29T17:49:48;14.30;99.90
64561;DHT22;50960;46.838;16.838;2022-10-29T17:52:15;14.30;99.90
64561;DHT22;50960;46.838;16.838;2022-10-29T17:54:42;14.30;99.90
64561;DHT22;50960;46.838;16.838;2022-10-29T17:57:08;14.20;99.90
64561;DHT22;50960;46.838;16.838;2022-10-29T17:59:34;14.20;99.90
64561;DHT22;50960;46.838;16.838;2022-10-29T18:02:00;14.20;99.90
64561;DHT22;50960;46.838;16.838;2022-10-29T18:04:27;14.20;99.90
64561;DHT22;50960;46.838;16.838;2022-10-29T18:06:53;14.20;99.90
64561;DHT22;50960;46.838;16.838;2022-10-29T18:09:21;14.20;99.90
64561;DHT22;50960;46.838;16.838;2022-10-29T18:11:48;14.20;99.90
64561;DHT22;50960;46.838;16.838;2022-10-29T18:14:15;14.10;99.90
64561;DHT22;50960;46.838;16.838;2022-10-29T18:16:41;14.00;99.90
64561;DHT22;50960;46.838;16.838;2022-10-29T18:19:07;14.00;99.90
64561;DHT22;50960;46.838;16.838;2022-10-29T18:21:34;14.00;99.90
64561;DHT22;50960;46.838;16.838;2022-10-29T18:24:00;14.00;99.90
64561;DHT22;50960;46.838;16.838;2022-10-29T18:26:31;13.90;99.90
64561;DHT22;50960;46.838;16.838;2022-10-29T18:29:00;13.90;99.90
64561;DHT22;50960;46.838;16.838;2022-10-29T18:31:29;13.80;99.90
64561;DHT22;50960;46.838;16.838;2022-10-29T18:33:56;13.80;99.90
64561;DHT22;50960;46.838;16.838;2022-10-29T18:36:23;13.70;99.90
64561;DHT22;50960;46.838;16.838;2022-10-29T18:38:54;13.70;99.90
64561;DHT22;50960;46.838;16.838;2022-10-29T18:41:21;13.70;99.90
64561;DHT22;50960;46.838;16.838;2022-10-29T18:43:48;13.60;99.90
64561;DHT22;50960;46.838;16.838;2022-10-29T18:46:16;13.50;99.90
64561;DHT22;50960;46.838;16.838;2022-10-29T18:48:44;13.50;99.90
64561;DHT22;50960;46.838;16.838;2022-10-29T18:51:16;13.50;99.90
64561;DHT22;50960;46.838;16.838;2022-10-29T18:53:43;13.50;99.90
64561;DHT22;50960;46.838;16.838;2022-10-29T18:56:11;13.50;99.90
64561;DHT22;50960;46.838;16.838;2022-10-29T18:58:38;13.50;99.90
64561;DHT22;50960;46.838;16.838;2022-10-29T19:03:35;13.50;99.90
64561;DHT22;50960;46.838;16.838;2022-10-29T19:06:07;13.50;99.90
64561;DHT22;50960;46.838;16.838;2022-10-29T19:08:35;13.50;99.90
64561;DHT22;50960;46.838;16.838;2022-10-29T19:11:06;13.50;99.90
64561;DHT22;50960;46.838;16.838;2022-10-29T19:13:33;13.50;99.90
64561;DHT22;50960;46.838;16.838;2022-10-29T19:16:10;13.60;99.90
64561;DHT22;50960;46.838;16.838;2022-10-29T19:18:37;13.60;99.90
64561;DHT22;50960;46.838;16.838;2022-10-29T19:21:15;13.60;99.90
64561;DHT22;50960;46.838;16.838;2022-10-29T19:23:42;13.50;99.90
64561;DHT22;50960;46.838;16.838;2022-10-29T19:26:11;13.50;99.90
64561;DHT22;50960;46.838;16.838;2022-10-29T19:28:38;13.50;99.90
64561;DHT22;50960;46.838;16.838;2022-10-29T19:31:25;13.50;99.90
64561;DHT22;50960;46.838;16.838;2022-10-29T19:33:54;13.50;99.90
64561;DHT22;50960;46.838;16.838;2022-10-29T19:36:21;13.50;99.90
64561;DHT22;50960;46.838;16.838;2022-10-29T19:38:48;13.50;99.90
64561;DHT22;50960;46.838;16.838;2022-10-29T19:41:15;13.50;99.90
64561;DHT22;50960;46.838;16.838;2022-10-29T19:43:42;13.40;99.90
64561;DHT22;50960;46.838;16.838;2022-10-29T19:46:10;13.40;99.90
64561;DHT22;50960;46.838;16.838;2022-10-29T19:48:38;13.40;99.90
64561;DHT22;50960;46.838;16.838;2022-10-29T19:51:05;13.30;99.90
64561;DHT22;50960;46.838;16.838;2022-10-29T19:53:31;13.30;99.90
64561;DHT22;50960;46.838;16.838;2022-10-29T19:55:57;13.30;99.90
64561;DHT22;50960;46.838;16.838;2022-10-29T19:58:25;13.30;99.90
64561;DHT22;50960;46.838;16.838;2022-10-29T20:00:53;13.30;99.90
64561;DHT22;50960;46.838;16.838;2022-10-29T20:03:19;13.30;99.90
64561;DHT22;50960;46.838;16.838;2022-10-29T20:05:46;13.30;99.90
64561;DHT22;50960;46.838;16.838;2022-10-29T20:08:12;13.30;99.90
64561;DHT22;50960;46.838;16.838;2022-10-29T20:10:39;13.30;99.90
64561;DHT22;50960;46.838;16.838;2022-10-29T20:13:05;13.30;99.90
64561;DHT22;50960;46.838;16.838;2022-10-29T20:15:31;13.30;99.90
64561;DHT22;50960;46.838;16.838;2022-10-29T20:17:57;13.20;99.90
64561;DHT22;50960;46.838;16.838;2022-10-29T20:20:24;13.20;99.90
64561;DHT22;50960;46.838;16.838;2022-10-29T20:22:50;13.20;99.90
64561;DHT22;50960;46.838;16.838;2022-10-29T20:25:17;13.10;99.90
64561;DHT22;50960;46.838;16.838;2022-10-29T20:27:43;13.00;99.90
64561;DHT22;50960;46.838;16.838;2022-10-29T20:30:10;13.00;99.90
64561;DHT22;50960;46.838;16.838;2022-10-29T20:32:37;12.90;99.90
64561;DHT22;50960;46.838;16.838;2022-10-29T20:35:03;12.90;99.90
64561;DHT22;50960;46.838;16.838;2022-10-29T20:37:29;12.80;99.90
64561;DHT22;50960;46.838;16.838;2022-10-29T20:39:56;12.80;99.90
64561;DHT22;50960;46.838;16.838;2022-10-29T20:42:23;12.80;99.90
64561;DHT22;50960;46.838;16.838;2022-10-29T20:44:49;12.70;99.90
64561;DHT22;50960;46.838;16.838;2022-10-29T20:47:15;12.70;99.90
64561;DHT22;50960;46.838;16.838;2022-10-29T20:49:41;12.60;99.90
64561;DHT22;50960;46.838;16.838;2022-10-29T20:52:08;12.60;99.90
64561;DHT22;50960;46.838;16.838;2022-10-29T20:54:34;12.60;99.90
64561;DHT22;50960;46.838;16.838;2022-10-29T20:57:00;12.60;99.90
64561;DHT22;50960;46.838;16.838;2022-10-29T20:59:26;12.60;99.90
64561;DHT22;50960;46.838;16.838;2022-10-29T21:01:53;12.70;99.90
64561;DHT22;50960;46.838;16.838;2022-10-29T21:04:19;12.80;99.90
64561;DHT22;50960;46.838;16.838;2022-10-29T21:06:45;12.80;99.90
